sensor_id;sensor_type;location;lat;lon;timestamp;P1;durP1;ratioP1;P2;durP2;ratioP2
74957;SDS011;63741;42.624;26.276;2023-08-08T00:01:16;6.72;;;0.98;;
74957;SDS011;63741;42.624;26.276;2023-08-08T00:03:43;14.75;;;1.40;;
74957;SDS011;63741;42.624;26.276;2023-08-08T00:06:10;20.98;;;1.48;;
74957;SDS011;63741;42.624;26.276;2023-08-08T00:08:37;9.27;;;1.00;;
74957;SDS011;63741;42.624;26.276;2023-08-08T00:11:04;15.02;;;1.40;;
74957;SDS011;63741;42.624;26.276;2023-08-08T00:13:31;14.30;;;1.55;;
74957;SDS011;63741;42.624;26.276;2023-08-08T00:15:58;19.63;;;1.67;;
74957;SDS011;63741;42.624;26.276;2023-08-08T00:18:25;1.55;;;0.90;;
74957;SDS011;63741;42.624;26.276;2023-08-08T00:20:52;5.30;;;1.10;;
74957;SDS011;63741;42.624;26.276;2023-08-08T00:23:19;4.15;;;0.90;;
74957;SDS011;63741;42.624;26.276;2023-08-08T00:25:46;3.60;;;0.90;;
74957;SDS011;63741;42.624;26.276;2023-08-08T00:28:17;11.00;;;1.38;;
74957;SDS011;63741;42.624;26.276;2023-08-08T00:30:44;2.78;;;0.80;;
74957;SDS011;63741;42.624;26.276;2023-08-08T00:33:11;2.15;;;0.85;;
74957;SDS011;63741;42.624;26.276;2023-08-08T00:35:38;2.08;;;0.80;;
74957;SDS011;63741;42.624;26.276;2023-08-08T00:38:05;2.45;;;1.15;;
74957;SDS011;63741;42.624;26.276;2023-08-08T00:40:32;5.63;;;1.25;;
74957;SDS011;63741;42.624;26.276;2023-08-08T00:42:59;3.40;;;0.82;;
74957;SDS011;63741;42.624;26.276;2023-08-08T00:45:26;3.33;;;1.00;;
74957;SDS011;63741;42.624;26.276;2023-08-08T00:47:54;7.57;;;1.00;;
74957;SDS011;63741;42.624;26.276;2023-08-08T00:50:21;5.10;;;1.15;;
74957;SDS011;63741;42.624;26.276;2023-08-08T00:52:49;11.63;;;1.52;;
74957;SDS011;63741;42.624;26.276;2023-08-08T00:55:16;22.10;;;1.70;;
74957;SDS011;63741;42.624;26.276;2023-08-08T00:57:43;5.70;;;1.25;;
74957;SDS011;63741;42.624;26.276;2023-08-08T01:00:10;4.03;;;1.00;;
74957;SDS011;63741;42.624;26.276;2023-08-08T01:02:38;3.78;;;0.98;;
74957;SDS011;63741;42.624;26.276;2023-08-08T01:05:05;4.30;;;1.20;;
74957;SDS011;63741;42.624;26.276;2023-08-08T01:07:54;12.23;;;1.35;;
74957;SDS011;63741;42.624;26.276;2023-08-08T01:10:29;17.05;;;1.77;;
74957;SDS011;63741;42.624;26.276;2023-08-08T01:13:03;22.58;;;2.22;;
74957;SDS011;63741;42.624;26.276;2023-08-08T01:15:34;5.55;;;1.30;;
74957;SDS011;63741;42.624;26.276;2023-08-08T01:18:03;10.55;;;1.40;;
74957;SDS011;63741;42.624;26.276;2023-08-08T01:20:32;18.58;;;1.80;;
74957;SDS011;63741;42.624;26.276;2023-08-08T01:25:29;2.70;;;1.55;;
74957;SDS011;63741;42.624;26.276;2023-08-08T01:27:57;6.07;;;1.50;;
74957;SDS011;63741;42.624;26.276;2023-08-08T01:30:24;4.65;;;1.15;;
74957;SDS011;63741;42.624;26.276;2023-08-08T01:32:51;8.07;;;1.20;;
74957;SDS011;63741;42.624;26.276;2023-08-08T01:35:18;2.30;;;1.00;;
74957;SDS011;63741;42.624;26.276;2023-08-08T01:37:49;3.60;;;1.00;;
74957;SDS011;63741;42.624;26.276;2023-08-08T01:40:19;4.32;;;1.10;;
74957;SDS011;63741;42.624;26.276;2023-08-08T01:42:48;2.55;;;1.05;;
74957;SDS011;63741;42.624;26.276;2023-08-08T01:45:15;2.67;;;1.20;;
74957;SDS011;63741;42.624;26.276;2023-08-08T01:47:43;4.28;;;1.30;;
74957;SDS011;63741;42.624;26.276;2023-08-08T01:50:17;2.53;;;1.10;;
74957;SDS011;63741;42.624;26.276;2023-08-08T01:52:44;4.63;;;1.20;;
74957;SDS011;63741;42.624;26.276;2023-08-08T01:55:13;4.10;;;1.20;;
74957;SDS011;63741;42.624;26.276;2023-08-08T01:57:40;2.20;;;1.08;;
74957;SDS011;63741;42.624;26.276;2023-08-08T02:00:07;1.80;;;0.90;;
74957;SDS011;63741;42.624;26.276;2023-08-08T02:02:41;2.30;;;1.02;;
74957;SDS011;63741;42.624;26.276;2023-08-08T02:05:08;6.40;;;1.13;;
74957;SDS011;63741;42.624;26.276;2023-08-08T02:07:35;3.85;;;0.90;;
74957;SDS011;63741;42.624;26.276;2023-08-08T02:10:02;3.85;;;1.00;;
74957;SDS011;63741;42.624;26.276;2023-08-08T02:12:30;3.05;;;0.90;;
74957;SDS011;63741;42.624;26.276;2023-08-08T02:14:57;2.53;;;0.90;;
74957;SDS011;63741;42.624;26.276;2023-08-08T02:17:24;1.90;;;1.00;;
74957;SDS011;63741;42.624;26.276;2023-08-08T02:19:52;27.58;;;2.00;;
74957;SDS011;63741;42.624;26.276;2023-08-08T02:22:19;16.23;;;1.50;;
74957;SDS011;63741;42.624;26.276;2023-08-08T02:24:46;2.13;;;0.95;;
74957;SDS011;63741;42.624;26.276;2023-08-08T02:27:13;6.32;;;0.90;;
74957;SDS011;63741;42.624;26.276;2023-08-08T02:29:40;4.32;;;1.00;;
74957;SDS011;63741;42.624;26.276;2023-08-08T02:32:07;1.70;;;0.80;;
74957;SDS011;63741;42.624;26.276;2023-08-08T02:34:34;3.17;;;0.93;;
74957;SDS011;63741;42.624;26.276;2023-08-08T02:37:01;1.60;;;0.90;;
74957;SDS011;63741;42.624;26.276;2023-08-08T02:39:29;2.75;;;0.70;;
74957;SDS011;63741;42.624;26.276;2023-08-08T02:41:56;2.30;;;1.00;;
74957;SDS011;63741;42.624;26.276;2023-08-08T02:44:25;3.03;;;0.90;;
74957;SDS011;63741;42.624;26.276;2023-08-08T02:46:51;6.03;;;0.88;;
74957;SDS011;63741;42.624;26.276;2023-08-08T02:49:18;3.25;;;0.90;;
74957;SDS011;63741;42.624;26.276;2023-08-08T02:51:45;1.67;;;0.80;;
74957;SDS011;63741;42.624;26.276;2023-08-08T02:54:13;3.92;;;0.80;;
74957;SDS011;63741;42.624;26.276;2023-08-08T02:56:41;21.45;;;1.60;;
74957;SDS011;63741;42.624;26.276;2023-08-08T02:59:10;6.13;;;0.95;;
74957;SDS011;63741;42.624;26.276;2023-08-08T03:01:37;5.55;;;1.00;;
74957;SDS011;63741;42.624;26.276;2023-08-08T03:04:14;24.50;;;2.20;;
74957;SDS011;63741;42.624;26.276;2023-08-08T03:06:41;8.20;;;1.15;;
74957;SDS011;63741;42.624;26.276;2023-08-08T03:09:08;6.88;;;1.00;;
74957;SDS011;63741;42.624;26.276;2023-08-08T03:11:37;22.50;;;1.73;;
74957;SDS011;63741;42.624;26.276;2023-08-08T03:14:11;1.52;;;0.90;;
74957;SDS011;63741;42.624;26.276;2023-08-08T03:16:38;5.93;;;0.90;;
74957;SDS011;63741;42.624;26.276;2023-08-08T03:19:07;7.72;;;0.95;;
74957;SDS011;63741;42.624;26.276;2023-08-08T03:21:36;6.05;;;0.90;;
74957;SDS011;63741;42.624;26.276;2023-08-08T03:24:03;3.33;;;0.80;;
74957;SDS011;63741;42.624;26.276;2023-08-08T03:26:30;2.13;;;0.70;;
74957;SDS011;63741;42.624;26.276;2023-08-08T03:28:57;7.82;;;1.00;;
74957;SDS011;63741;42.624;26.276;2023-08-08T03:31:38;6.35;;;0.68;;
74957;SDS011;63741;42.624;26.276;2023-08-08T03:34:05;4.05;;;0.80;;
74957;SDS011;63741;42.624;26.276;2023-08-08T03:36:33;2.30;;;0.70;;
74957;SDS011;63741;42.624;26.276;2023-08-08T03:39:00;3.10;;;0.60;;
74957;SDS011;63741;42.624;26.276;2023-08-08T03:41:27;2.28;;;0.60;;
74957;SDS011;63741;42.624;26.276;2023-08-08T03:43:55;2.83;;;0.60;;
74957;SDS011;63741;42.624;26.276;2023-08-08T03:46:24;6.63;;;0.90;;
74957;SDS011;63741;42.624;26.276;2023-08-08T03:48:51;2.28;;;0.70;;
74957;SDS011;63741;42.624;26.276;2023-08-08T03:51:20;4.70;;;0.70;;
74957;SDS011;63741;42.624;26.276;2023-08-08T03:53:47;1.50;;;0.57;;
74957;SDS011;63741;42.624;26.276;2023-08-08T03:56:14;2.47;;;0.60;;
74957;SDS011;63741;42.624;26.276;2023-08-08T03:58:41;6.65;;;0.90;;
74957;SDS011;63741;42.624;26.276;2023-08-08T04:01:08;7.95;;;0.80;;
74957;SDS011;63741;42.624;26.276;2023-08-08T04:03:35;16.33;;;1.20;;
74957;SDS011;63741;42.624;26.276;2023-08-08T04:06:03;5.93;;;0.65;;
74957;SDS011;63741;42.624;26.276;2023-08-08T04:08:32;1.17;;;0.45;;
74957;SDS011;63741;42.624;26.276;2023-08-08T04:10:59;20.13;;;1.00;;
74957;SDS011;63741;42.624;26.276;2023-08-08T04:13:28;5.75;;;0.65;;
74957;SDS011;63741;42.624;26.276;2023-08-08T04:15:55;19.27;;;1.50;;
74957;SDS011;63741;42.624;26.276;2023-08-08T04:18:22;4.50;;;0.60;;
74957;SDS011;63741;42.624;26.276;2023-08-08T04:20:49;2.67;;;0.60;;
74957;SDS011;63741;42.624;26.276;2023-08-08T04:23:16;4.18;;;0.60;;
74957;SDS011;63741;42.624;26.276;2023-08-08T04:25:44;14.48;;;1.00;;
74957;SDS011;63741;42.624;26.276;2023-08-08T04:28:11;5.68;;;1.00;;
74957;SDS011;63741;42.624;26.276;2023-08-08T04:30:38;23.38;;;1.40;;
74957;SDS011;63741;42.624;26.276;2023-08-08T04:33:05;13.15;;;1.20;;
74957;SDS011;63741;42.624;26.276;2023-08-08T04:35:32;4.40;;;0.60;;
74957;SDS011;63741;42.624;26.276;2023-08-08T04:37:59;4.80;;;0.57;;
74957;SDS011;63741;42.624;26.276;2023-08-08T04:40:26;3.97;;;0.52;;
74957;SDS011;63741;42.624;26.276;2023-08-08T04:42:53;10.27;;;0.70;;
74957;SDS011;63741;42.624;26.276;2023-08-08T04:45:20;5.95;;;0.50;;
74957;SDS011;63741;42.624;26.276;2023-08-08T04:47:47;6.10;;;0.85;;
74957;SDS011;63741;42.624;26.276;2023-08-08T04:50:16;4.93;;;0.60;;
74957;SDS011;63741;42.624;26.276;2023-08-08T04:52:43;10.20;;;0.80;;
74957;SDS011;63741;42.624;26.276;2023-08-08T04:55:10;4.38;;;0.70;;
74957;SDS011;63741;42.624;26.276;2023-08-08T04:57:36;7.15;;;0.80;;
74957;SDS011;63741;42.624;26.276;2023-08-08T05:00:04;23.92;;;1.30;;
74957;SDS011;63741;42.624;26.276;2023-08-08T05:02:34;13.43;;;1.00;;
74957;SDS011;63741;42.624;26.276;2023-08-08T05:05:02;3.22;;;0.38;;
74957;SDS011;63741;42.624;26.276;2023-08-08T05:07:30;12.77;;;0.90;;
74957;SDS011;63741;42.624;26.276;2023-08-08T05:09:57;47.78;;;2.63;;
74957;SDS011;63741;42.624;26.276;2023-08-08T05:12:24;20.95;;;1.35;;
74957;SDS011;63741;42.624;26.276;2023-08-08T05:14:51;13.00;;;1.27;;
74957;SDS011;63741;42.624;26.276;2023-08-08T05:17:18;26.63;;;1.42;;
74957;SDS011;63741;42.624;26.276;2023-08-08T05:19:45;26.58;;;1.35;;
74957;SDS011;63741;42.624;26.276;2023-08-08T05:22:12;14.07;;;0.68;;
74957;SDS011;63741;42.624;26.276;2023-08-08T05:24:39;9.30;;;0.60;;
74957;SDS011;63741;42.624;26.276;2023-08-08T05:27:06;20.25;;;1.38;;
74957;SDS011;63741;42.624;26.276;2023-08-08T05:29:33;26.08;;;1.48;;
74957;SDS011;63741;42.624;26.276;2023-08-08T05:32:04;13.40;;;0.90;;
74957;SDS011;63741;42.624;26.276;2023-08-08T05:34:33;18.20;;;1.27;;
74957;SDS011;63741;42.624;26.276;2023-08-08T05:37:00;13.38;;;1.05;;
74957;SDS011;63741;42.624;26.276;2023-08-08T05:39:41;29.92;;;1.30;;
74957;SDS011;63741;42.624;26.276;2023-08-08T05:42:08;6.25;;;0.70;;
74957;SDS011;63741;42.624;26.276;2023-08-08T05:44:35;8.93;;;0.50;;
74957;SDS011;63741;42.624;26.276;2023-08-08T05:47:02;2.92;;;0.40;;
74957;SDS011;63741;42.624;26.276;2023-08-08T05:49:29;1.55;;;0.20;;
74957;SDS011;63741;42.624;26.276;2023-08-08T05:51:56;2.60;;;0.50;;
74957;SDS011;63741;42.624;26.276;2023-08-08T05:54:23;1.83;;;0.43;;
74957;SDS011;63741;42.624;26.276;2023-08-08T05:56:50;3.65;;;0.40;;
74957;SDS011;63741;42.624;26.276;2023-08-08T05:59:17;3.35;;;0.50;;
74957;SDS011;63741;42.624;26.276;2023-08-08T06:01:44;2.83;;;0.50;;
74957;SDS011;63741;42.624;26.276;2023-08-08T06:04:11;4.00;;;0.40;;
74957;SDS011;63741;42.624;26.276;2023-08-08T06:06:39;1.77;;;0.47;;
74957;SDS011;63741;42.624;26.276;2023-08-08T06:09:06;2.55;;;0.40;;
74957;SDS011;63741;42.624;26.276;2023-08-08T06:11:35;5.47;;;0.80;;
74957;SDS011;63741;42.624;26.276;2023-08-08T06:14:02;4.00;;;0.50;;
74957;SDS011;63741;42.624;26.276;2023-08-08T06:16:29;4.32;;;0.40;;
74957;SDS011;63741;42.624;26.276;2023-08-08T06:18:56;3.90;;;0.45;;
74957;SDS011;63741;42.624;26.276;2023-08-08T06:21:23;2.20;;;0.70;;
74957;SDS011;63741;42.624;26.276;2023-08-08T06:23:50;3.95;;;0.60;;
74957;SDS011;63741;42.624;26.276;2023-08-08T06:26:18;3.40;;;0.70;;
74957;SDS011;63741;42.624;26.276;2023-08-08T06:28:47;4.70;;;0.40;;
74957;SDS011;63741;42.624;26.276;2023-08-08T06:31:15;1.83;;;0.50;;
74957;SDS011;63741;42.624;26.276;2023-08-08T06:33:42;3.50;;;0.55;;
74957;SDS011;63741;42.624;26.276;2023-08-08T06:36:09;4.55;;;0.68;;
74957;SDS011;63741;42.624;26.276;2023-08-08T06:38:36;2.67;;;0.60;;
74957;SDS011;63741;42.624;26.276;2023-08-08T06:41:03;2.85;;;0.70;;
74957;SDS011;63741;42.624;26.276;2023-08-08T06:43:30;4.25;;;0.88;;
74957;SDS011;63741;42.624;26.276;2023-08-08T06:45:58;3.28;;;0.70;;
74957;SDS011;63741;42.624;26.276;2023-08-08T06:48:25;2.33;;;0.80;;
74957;SDS011;63741;42.624;26.276;2023-08-08T06:50:51;3.22;;;0.90;;
74957;SDS011;63741;42.624;26.276;2023-08-08T06:53:18;3.97;;;0.80;;
74957;SDS011;63741;42.624;26.276;2023-08-08T06:55:45;3.70;;;0.70;;
74957;SDS011;63741;42.624;26.276;2023-08-08T06:58:12;5.35;;;0.90;;
74957;SDS011;63741;42.624;26.276;2023-08-08T07:00:39;7.57;;;1.13;;
74957;SDS011;63741;42.624;26.276;2023-08-08T07:03:06;4.97;;;0.90;;
74957;SDS011;63741;42.624;26.276;2023-08-08T07:05:33;6.63;;;1.15;;
74957;SDS011;63741;42.624;26.276;2023-08-08T07:08:03;7.82;;;1.20;;
74957;SDS011;63741;42.624;26.276;2023-08-08T07:10:33;12.35;;;3.55;;
74957;SDS011;63741;42.624;26.276;2023-08-08T07:13:00;20.80;;;12.07;;
74957;SDS011;63741;42.624;26.276;2023-08-08T07:15:27;9.10;;;5.47;;
74957;SDS011;63741;42.624;26.276;2023-08-08T07:17:54;26.30;;;3.60;;
74957;SDS011;63741;42.624;26.276;2023-08-08T07:20:21;15.30;;;4.15;;
74957;SDS011;63741;42.624;26.276;2023-08-08T07:22:49;15.10;;;3.78;;
74957;SDS011;63741;42.624;26.276;2023-08-08T07:25:16;7.80;;;2.58;;
74957;SDS011;63741;42.624;26.276;2023-08-08T07:27:43;16.27;;;6.65;;
74957;SDS011;63741;42.624;26.276;2023-08-08T07:30:10;38.95;;;15.00;;
74957;SDS011;63741;42.624;26.276;2023-08-08T07:32:38;17.33;;;4.35;;
74957;SDS011;63741;42.624;26.276;2023-08-08T07:35:05;13.77;;;3.33;;
74957;SDS011;63741;42.624;26.276;2023-08-08T07:37:34;22.98;;;2.22;;
74957;SDS011;63741;42.624;26.276;2023-08-08T07:40:02;11.73;;;3.40;;
74957;SDS011;63741;42.624;26.276;2023-08-08T07:42:30;17.58;;;1.60;;
74957;SDS011;63741;42.624;26.276;2023-08-08T07:44:57;14.90;;;4.30;;
74957;SDS011;63741;42.624;26.276;2023-08-08T07:47:24;6.95;;;2.03;;
74957;SDS011;63741;42.624;26.276;2023-08-08T07:49:51;9.55;;;2.05;;
74957;SDS011;63741;42.624;26.276;2023-08-08T07:52:18;6.35;;;2.00;;
74957;SDS011;63741;42.624;26.276;2023-08-08T07:54:44;5.18;;;1.70;;
74957;SDS011;63741;42.624;26.276;2023-08-08T07:57:11;4.60;;;1.92;;
74957;SDS011;63741;42.624;26.276;2023-08-08T07:59:38;12.13;;;2.10;;
74957;SDS011;63741;42.624;26.276;2023-08-08T08:02:05;25.70;;;2.15;;
74957;SDS011;63741;42.624;26.276;2023-08-08T08:04:34;15.05;;;2.38;;
74957;SDS011;63741;42.624;26.276;2023-08-08T08:07:01;11.68;;;1.63;;
74957;SDS011;63741;42.624;26.276;2023-08-08T08:09:29;5.35;;;1.60;;
74957;SDS011;63741;42.624;26.276;2023-08-08T08:11:55;12.88;;;1.75;;
74957;SDS011;63741;42.624;26.276;2023-08-08T08:14:23;11.05;;;1.40;;
74957;SDS011;63741;42.624;26.276;2023-08-08T08:16:51;6.63;;;1.60;;
74957;SDS011;63741;42.624;26.276;2023-08-08T08:19:18;9.70;;;1.80;;
74957;SDS011;63741;42.624;26.276;2023-08-08T08:21:46;4.18;;;1.90;;
74957;SDS011;63741;42.624;26.276;2023-08-08T08:24:13;8.82;;;1.90;;
74957;SDS011;63741;42.624;26.276;2023-08-08T08:26:42;4.28;;;1.60;;
74957;SDS011;63741;42.624;26.276;2023-08-08T08:29:09;6.25;;;1.75;;
74957;SDS011;63741;42.624;26.276;2023-08-08T08:31:36;3.88;;;1.70;;
74957;SDS011;63741;42.624;26.276;2023-08-08T08:34:03;1.75;;;1.10;;
74957;SDS011;63741;42.624;26.276;2023-08-08T08:36:31;3.72;;;1.95;;
74957;SDS011;63741;42.624;26.276;2023-08-08T08:38:58;2.85;;;1.40;;
74957;SDS011;63741;42.624;26.276;2023-08-08T08:41:25;2.88;;;1.33;;
74957;SDS011;63741;42.624;26.276;2023-08-08T08:43:54;3.58;;;1.50;;
74957;SDS011;63741;42.624;26.276;2023-08-08T08:46:21;4.85;;;1.45;;
74957;SDS011;63741;42.624;26.276;2023-08-08T08:48:52;3.35;;;1.40;;
74957;SDS011;63741;42.624;26.276;2023-08-08T08:51:22;2.75;;;1.30;;
74957;SDS011;63741;42.624;26.276;2023-08-08T08:53:49;1.75;;;1.00;;
74957;SDS011;63741;42.624;26.276;2023-08-08T08:56:16;4.00;;;1.23;;
74957;SDS011;63741;42.624;26.276;2023-08-08T08:58:44;3.28;;;1.20;;
74957;SDS011;63741;42.624;26.276;2023-08-08T09:01:11;5.85;;;1.38;;
74957;SDS011;63741;42.624;26.276;2023-08-08T09:03:38;17.02;;;1.80;;
74957;SDS011;63741;42.624;26.276;2023-08-08T09:06:06;10.48;;;1.52;;
74957;SDS011;63741;42.624;26.276;2023-08-08T09:08:34;6.78;;;0.98;;
74957;SDS011;63741;42.624;26.276;2023-08-08T09:11:01;10.00;;;1.20;;
74957;SDS011;63741;42.624;26.276;2023-08-08T09:13:33;4.30;;;1.00;;
74957;SDS011;63741;42.624;26.276;2023-08-08T09:16:06;1.85;;;0.98;;
74957;SDS011;63741;42.624;26.276;2023-08-08T09:18:39;2.00;;;0.80;;
74957;SDS011;63741;42.624;26.276;2023-08-08T09:21:06;2.85;;;0.90;;
74957;SDS011;63741;42.624;26.276;2023-08-08T09:23:33;1.40;;;0.75;;
74957;SDS011;63741;42.624;26.276;2023-08-08T09:26:00;14.90;;;1.48;;
74957;SDS011;63741;42.624;26.276;2023-08-08T09:28:27;5.15;;;1.40;;
74957;SDS011;63741;42.624;26.276;2023-08-08T09:30:54;7.47;;;1.35;;
74957;SDS011;63741;42.624;26.276;2023-08-08T09:33:21;9.65;;;1.10;;
74957;SDS011;63741;42.624;26.276;2023-08-08T09:35:48;5.75;;;0.80;;
74957;SDS011;63741;42.624;26.276;2023-08-08T09:38:15;0.90;;;0.60;;
74957;SDS011;63741;42.624;26.276;2023-08-08T09:40:42;2.92;;;0.60;;
74957;SDS011;63741;42.624;26.276;2023-08-08T09:43:09;2.35;;;0.60;;
74957;SDS011;63741;42.624;26.276;2023-08-08T09:45:38;4.88;;;0.75;;
74957;SDS011;63741;42.624;26.276;2023-08-08T09:48:08;3.53;;;0.60;;
74957;SDS011;63741;42.624;26.276;2023-08-08T09:50:35;1.23;;;0.40;;
74957;SDS011;63741;42.624;26.276;2023-08-08T09:53:02;4.97;;;0.80;;
74957;SDS011;63741;42.624;26.276;2023-08-08T09:55:32;2.85;;;0.52;;
74957;SDS011;63741;42.624;26.276;2023-08-08T09:57:59;4.00;;;0.90;;
74957;SDS011;63741;42.624;26.276;2023-08-08T10:00:27;1.95;;;0.60;;
74957;SDS011;63741;42.624;26.276;2023-08-08T10:02:56;1.33;;;0.50;;
74957;SDS011;63741;42.624;26.276;2023-08-08T10:05:25;1.45;;;0.50;;
74957;SDS011;63741;42.624;26.276;2023-08-08T10:07:53;8.25;;;1.00;;
74957;SDS011;63741;42.624;26.276;2023-08-08T10:10:20;1.35;;;0.50;;
74957;SDS011;63741;42.624;26.276;2023-08-08T10:12:47;2.15;;;0.50;;
74957;SDS011;63741;42.624;26.276;2023-08-08T10:15:14;1.58;;;0.70;;
74957;SDS011;63741;42.624;26.276;2023-08-08T10:17:41;1.48;;;0.50;;
74957;SDS011;63741;42.624;26.276;2023-08-08T10:20:10;8.95;;;1.33;;
74957;SDS011;63741;42.624;26.276;2023-08-08T10:22:42;4.35;;;0.65;;
74957;SDS011;63741;42.624;26.276;2023-08-08T10:25:24;2.67;;;0.63;;
74957;SDS011;63741;42.624;26.276;2023-08-08T10:28:07;2.22;;;0.50;;
74957;SDS011;63741;42.624;26.276;2023-08-08T10:33:25;4.55;;;0.68;;
74957;SDS011;63741;42.624;26.276;2023-08-08T10:35:54;3.30;;;0.47;;
74957;SDS011;63741;42.624;26.276;2023-08-08T10:38:25;5.07;;;0.65;;
74957;SDS011;63741;42.624;26.276;2023-08-08T10:40:57;3.10;;;0.50;;
74957;SDS011;63741;42.624;26.276;2023-08-08T10:43:28;2.92;;;0.73;;
74957;SDS011;63741;42.624;26.276;2023-08-08T10:46:02;4.13;;;0.50;;
74957;SDS011;63741;42.624;26.276;2023-08-08T10:51:19;0.85;;;0.40;;
74957;SDS011;63741;42.624;26.276;2023-08-08T10:53:51;0.90;;;0.50;;
74957;SDS011;63741;42.624;26.276;2023-08-08T10:56:19;2.88;;;0.50;;
74957;SDS011;63741;42.624;26.276;2023-08-08T10:58:47;4.80;;;0.77;;
74957;SDS011;63741;42.624;26.276;2023-08-08T11:01:15;1.10;;;0.50;;
74957;SDS011;63741;42.624;26.276;2023-08-08T11:03:44;1.50;;;0.50;;
74957;SDS011;63741;42.624;26.276;2023-08-08T11:06:12;0.90;;;0.40;;
74957;SDS011;63741;42.624;26.276;2023-08-08T11:08:40;3.17;;;0.73;;
74957;SDS011;63741;42.624;26.276;2023-08-08T11:11:07;1.88;;;0.55;;
74957;SDS011;63741;42.624;26.276;2023-08-08T11:13:34;4.10;;;0.40;;
74957;SDS011;63741;42.624;26.276;2023-08-08T11:16:01;5.88;;;1.08;;
74957;SDS011;63741;42.624;26.276;2023-08-08T11:18:28;2.28;;;0.50;;
74957;SDS011;63741;42.624;26.276;2023-08-08T11:20:56;3.03;;;0.40;;
74957;SDS011;63741;42.624;26.276;2023-08-08T11:23:45;2.45;;;0.35;;
74957;SDS011;63741;42.624;26.276;2023-08-08T11:26:12;0.88;;;0.35;;
74957;SDS011;63741;42.624;26.276;2023-08-08T11:28:48;0.95;;;0.50;;
74957;SDS011;63741;42.624;26.276;2023-08-08T11:31:21;7.45;;;0.60;;
74957;SDS011;63741;42.624;26.276;2023-08-08T11:33:49;2.03;;;0.38;;
74957;SDS011;63741;42.624;26.276;2023-08-08T11:36:16;5.32;;;0.50;;
74957;SDS011;63741;42.624;26.276;2023-08-08T11:38:43;2.03;;;0.70;;
74957;SDS011;63741;42.624;26.276;2023-08-08T11:41:11;1.48;;;0.50;;
74957;SDS011;63741;42.624;26.276;2023-08-08T11:43:40;13.15;;;0.80;;
74957;SDS011;63741;42.624;26.276;2023-08-08T11:46:14;5.43;;;0.45;;
74957;SDS011;63741;42.624;26.276;2023-08-08T11:48:42;4.00;;;0.50;;
74957;SDS011;63741;42.624;26.276;2023-08-08T11:51:09;4.30;;;0.60;;
74957;SDS011;63741;42.624;26.276;2023-08-08T11:53:47;6.07;;;0.60;;
74957;SDS011;63741;42.624;26.276;2023-08-08T11:56:17;4.05;;;0.57;;
74957;SDS011;63741;42.624;26.276;2023-08-08T11:58:51;3.72;;;0.50;;
74957;SDS011;63741;42.624;26.276;2023-08-08T12:01:25;1.70;;;0.40;;
74957;SDS011;63741;42.624;26.276;2023-08-08T12:03:53;3.72;;;0.70;;
74957;SDS011;63741;42.624;26.276;2023-08-08T12:06:21;5.38;;;0.68;;
74957;SDS011;63741;42.624;26.276;2023-08-08T12:08:48;1.50;;;0.70;;
74957;SDS011;63741;42.624;26.276;2023-08-08T12:11:15;2.65;;;0.68;;
74957;SDS011;63741;42.624;26.276;2023-08-08T12:13:44;1.52;;;0.50;;
74957;SDS011;63741;42.624;26.276;2023-08-08T12:16:12;8.25;;;0.70;;
74957;SDS011;63741;42.624;26.276;2023-08-08T12:18:43;1.73;;;0.70;;
74957;SDS011;63741;42.624;26.276;2023-08-08T12:21:11;2.97;;;0.63;;
74957;SDS011;63741;42.624;26.276;2023-08-08T12:23:37;1.92;;;0.55;;
74957;SDS011;63741;42.624;26.276;2023-08-08T12:26:05;1.73;;;0.63;;
74957;SDS011;63741;42.624;26.276;2023-08-08T12:28:33;1.25;;;0.52;;
74957;SDS011;63741;42.624;26.276;2023-08-08T12:31:03;0.75;;;0.50;;
74957;SDS011;63741;42.624;26.276;2023-08-08T12:33:30;9.75;;;1.00;;
74957;SDS011;63741;42.624;26.276;2023-08-08T12:35:57;3.80;;;0.82;;
74957;SDS011;63741;42.624;26.276;2023-08-08T12:38:24;5.20;;;1.10;;
74957;SDS011;63741;42.624;26.276;2023-08-08T12:40:51;5.03;;;0.90;;
74957;SDS011;63741;42.624;26.276;2023-08-08T12:43:18;3.60;;;0.98;;
74957;SDS011;63741;42.624;26.276;2023-08-08T12:45:45;3.22;;;0.52;;
74957;SDS011;63741;42.624;26.276;2023-08-08T12:48:12;8.23;;;0.85;;
74957;SDS011;63741;42.624;26.276;2023-08-08T12:50:39;3.95;;;0.57;;
74957;SDS011;63741;42.624;26.276;2023-08-08T12:53:07;10.63;;;1.02;;
74957;SDS011;63741;42.624;26.276;2023-08-08T12:55:34;1.75;;;0.68;;
74957;SDS011;63741;42.624;26.276;2023-08-08T12:58:02;2.72;;;0.60;;
74957;SDS011;63741;42.624;26.276;2023-08-08T13:00:30;0.98;;;0.52;;
74957;SDS011;63741;42.624;26.276;2023-08-08T13:02:57;2.65;;;0.70;;
74957;SDS011;63741;42.624;26.276;2023-08-08T13:05:26;9.50;;;0.93;;
74957;SDS011;63741;42.624;26.276;2023-08-08T13:07:53;2.08;;;0.50;;
74957;SDS011;63741;42.624;26.276;2023-08-08T13:10:20;6.25;;;0.60;;
74957;SDS011;63741;42.624;26.276;2023-08-08T13:12:47;2.13;;;0.70;;
74957;SDS011;63741;42.624;26.276;2023-08-08T13:15:14;12.35;;;0.98;;
74957;SDS011;63741;42.624;26.276;2023-08-08T13:17:42;2.15;;;0.60;;
74957;SDS011;63741;42.624;26.276;2023-08-08T13:20:10;3.53;;;1.00;;
74957;SDS011;63741;42.624;26.276;2023-08-08T13:22:38;2.63;;;0.55;;
74957;SDS011;63741;42.624;26.276;2023-08-08T13:25:06;6.82;;;0.77;;
74957;SDS011;63741;42.624;26.276;2023-08-08T13:27:33;3.25;;;0.73;;
74957;SDS011;63741;42.624;26.276;2023-08-08T13:30:00;4.22;;;0.50;;
74957;SDS011;63741;42.624;26.276;2023-08-08T13:32:27;0.98;;;0.55;;
74957;SDS011;63741;42.624;26.276;2023-08-08T13:34:55;3.00;;;0.70;;
74957;SDS011;63741;42.624;26.276;2023-08-08T13:37:21;1.42;;;0.50;;
74957;SDS011;63741;42.624;26.276;2023-08-08T13:39:48;1.73;;;0.70;;
74957;SDS011;63741;42.624;26.276;2023-08-08T13:42:15;3.58;;;0.77;;
74957;SDS011;63741;42.624;26.276;2023-08-08T13:44:42;10.75;;;1.10;;
74957;SDS011;63741;42.624;26.276;2023-08-08T13:47:09;13.25;;;1.02;;
74957;SDS011;63741;42.624;26.276;2023-08-08T13:49:36;11.02;;;1.10;;
74957;SDS011;63741;42.624;26.276;2023-08-08T13:52:03;5.63;;;0.90;;
74957;SDS011;63741;42.624;26.276;2023-08-08T13:54:30;4.63;;;0.90;;
74957;SDS011;63741;42.624;26.276;2023-08-08T13:56:57;2.35;;;0.70;;
74957;SDS011;63741;42.624;26.276;2023-08-08T13:59:24;3.42;;;0.90;;
74957;SDS011;63741;42.624;26.276;2023-08-08T14:01:51;6.97;;;1.30;;
74957;SDS011;63741;42.624;26.276;2023-08-08T14:04:18;2.25;;;0.52;;
74957;SDS011;63741;42.624;26.276;2023-08-08T14:06:45;4.70;;;0.80;;
74957;SDS011;63741;42.624;26.276;2023-08-08T14:09:12;5.25;;;0.80;;
74957;SDS011;63741;42.624;26.276;2023-08-08T14:11:41;7.63;;;0.70;;
74957;SDS011;63741;42.624;26.276;2023-08-08T14:14:08;4.03;;;0.70;;
74957;SDS011;63741;42.624;26.276;2023-08-08T14:16:34;4.78;;;0.60;;
74957;SDS011;63741;42.624;26.276;2023-08-08T14:19:02;7.80;;;0.80;;
74957;SDS011;63741;42.624;26.276;2023-08-08T14:21:29;4.03;;;0.70;;
74957;SDS011;63741;42.624;26.276;2023-08-08T14:23:55;5.20;;;0.80;;
74957;SDS011;63741;42.624;26.276;2023-08-08T14:26:22;11.95;;;1.08;;
74957;SDS011;63741;42.624;26.276;2023-08-08T14:28:49;7.47;;;0.77;;
74957;SDS011;63741;42.624;26.276;2023-08-08T14:31:16;1.90;;;0.60;;
74957;SDS011;63741;42.624;26.276;2023-08-08T14:33:43;3.63;;;0.70;;
74957;SDS011;63741;42.624;26.276;2023-08-08T14:36:10;6.32;;;0.88;;
74957;SDS011;63741;42.624;26.276;2023-08-08T14:38:37;5.28;;;0.90;;
74957;SDS011;63741;42.624;26.276;2023-08-08T14:41:04;6.03;;;0.88;;
74957;SDS011;63741;42.624;26.276;2023-08-08T14:43:31;4.03;;;1.05;;